sensor_id;sensor_type;location;lat;lon;timestamp;P1;durP1;ratioP1;P2;durP2;ratioP2
76377;SDS011;65200;49.500;8.654;2023-07-08T00:01:34;5.63;;;4.30;;
76377;SDS011;65200;49.500;8.654;2023-07-08T00:04:01;6.43;;;4.50;;
76377;SDS011;65200;49.500;8.654;2023-07-08T00:06:28;5.18;;;3.17;;
76377;SDS011;65200;49.500;8.654;2023-07-08T00:08:55;6.13;;;4.22;;
76377;SDS011;65200;49.500;8.654;2023-07-08T00:11:22;7.47;;;3.92;;
76377;SDS011;65200;49.500;8.654;2023-07-08T00:13:50;7.47;;;3.58;;
76377;SDS011;65200;49.500;8.654;2023-07-08T00:16:17;6.38;;;3.92;;
76377;SDS011;65200;49.500;8.654;2023-07-08T00:18:45;7.05;;;4.63;;
76377;SDS011;65200;49.500;8.654;2023-07-08T00:21:14;7.72;;;4.38;;
76377;SDS011;65200;49.500;8.654;2023-07-08T00:23:42;7.28;;;4.10;;
76377;SDS011;65200;49.500;8.654;2023-07-08T00:26:10;5.53;;;3.85;;
76377;SDS011;65200;49.500;8.654;2023-07-08T00:28:39;5.65;;;3.75;;
76377;SDS011;65200;49.500;8.654;2023-07-08T00:31:09;8.82;;;3.90;;
76377;SDS011;65200;49.500;8.654;2023-07-08T00:33:36;7.50;;;4.53;;
76377;SDS011;65200;49.500;8.654;2023-07-08T00:36:05;6.10;;;4.13;;
76377;SDS011;65200;49.500;8.654;2023-07-08T00:38:36;6.35;;;3.95;;
76377;SDS011;65200;49.500;8.654;2023-07-08T00:41:06;6.82;;;3.75;;
76377;SDS011;65200;49.500;8.654;2023-07-08T00:43:37;6.47;;;4.38;;
76377;SDS011;65200;49.500;8.654;2023-07-08T00:46:16;8.82;;;4.57;;
76377;SDS011;65200;49.500;8.654;2023-07-08T00:48:51;6.22;;;4.03;;
76377;SDS011;65200;49.500;8.654;2023-07-08T00:51:20;9.45;;;4.50;;
76377;SDS011;65200;49.500;8.654;2023-07-08T00:53:48;5.63;;;3.65;;
76377;SDS011;65200;49.500;8.654;2023-07-08T00:56:16;5.75;;;3.55;;
76377;SDS011;65200;49.500;8.654;2023-07-08T00:58:47;5.75;;;3.97;;
76377;SDS011;65200;49.500;8.654;2023-07-08T01:01:18;6.38;;;4.13;;
76377;SDS011;65200;49.500;8.654;2023-07-08T01:03:45;6.07;;;3.58;;
76377;SDS011;65200;49.500;8.654;2023-07-08T01:06:15;6.97;;;3.90;;
76377;SDS011;65200;49.500;8.654;2023-07-08T01:08:42;6.82;;;4.28;;
76377;SDS011;65200;49.500;8.654;2023-07-08T01:11:08;6.50;;;4.07;;
76377;SDS011;65200;49.500;8.654;2023-07-08T01:13:36;7.13;;;4.72;;
76377;SDS011;65200;49.500;8.654;2023-07-08T01:16:09;7.47;;;4.28;;
76377;SDS011;65200;49.500;8.654;2023-07-08T01:18:37;8.07;;;4.15;;
76377;SDS011;65200;49.500;8.654;2023-07-08T01:21:05;11.55;;;4.43;;
76377;SDS011;65200;49.500;8.654;2023-07-08T01:23:53;7.18;;;4.53;;
76377;SDS011;65200;49.500;8.654;2023-07-08T01:26:20;8.05;;;3.85;;
76377;SDS011;65200;49.500;8.654;2023-07-08T01:28:50;6.65;;;4.03;;
76377;SDS011;65200;49.500;8.654;2023-07-08T01:31:17;7.13;;;4.68;;
76377;SDS011;65200;49.500;8.654;2023-07-08T01:33:44;6.82;;;3.97;;
76377;SDS011;65200;49.500;8.654;2023-07-08T01:36:11;9.15;;;4.28;;
76377;SDS011;65200;49.500;8.654;2023-07-08T01:38:38;7.38;;;4.40;;
76377;SDS011;65200;49.500;8.654;2023-07-08T01:41:10;7.97;;;3.65;;
76377;SDS011;65200;49.500;8.654;2023-07-08T01:43:37;6.30;;;4.30;;
76377;SDS011;65200;49.500;8.654;2023-07-08T01:46:04;6.60;;;4.43;;
76377;SDS011;65200;49.500;8.654;2023-07-08T01:48:38;6.93;;;4.63;;
76377;SDS011;65200;49.500;8.654;2023-07-08T01:51:10;7.35;;;4.00;;
76377;SDS011;65200;49.500;8.654;2023-07-08T01:53:39;6.57;;;3.83;;
76377;SDS011;65200;49.500;8.654;2023-07-08T01:56:09;6.80;;;3.88;;
76377;SDS011;65200;49.500;8.654;2023-07-08T01:58:36;8.23;;;5.07;;
76377;SDS011;65200;49.500;8.654;2023-07-08T02:01:03;6.18;;;3.72;;
76377;SDS011;65200;49.500;8.654;2023-07-08T02:03:30;6.20;;;4.35;;
76377;SDS011;65200;49.500;8.654;2023-07-08T02:05:56;7.00;;;4.60;;
76377;SDS011;65200;49.500;8.654;2023-07-08T02:08:23;5.55;;;3.80;;
76377;SDS011;65200;49.500;8.654;2023-07-08T02:10:50;6.53;;;4.10;;
76377;SDS011;65200;49.500;8.654;2023-07-08T02:13:19;5.53;;;3.75;;
76377;SDS011;65200;49.500;8.654;2023-07-08T02:15:47;5.28;;;3.65;;
76377;SDS011;65200;49.500;8.654;2023-07-08T02:18:13;6.47;;;4.35;;
76377;SDS011;65200;49.500;8.654;2023-07-08T02:20:40;6.35;;;3.97;;
76377;SDS011;65200;49.500;8.654;2023-07-08T02:23:08;5.75;;;3.88;;
76377;SDS011;65200;49.500;8.654;2023-07-08T02:25:34;6.07;;;4.43;;
76377;SDS011;65200;49.500;8.654;2023-07-08T02:28:01;6.70;;;4.32;;
76377;SDS011;65200;49.500;8.654;2023-07-08T02:30:29;7.13;;;3.97;;
76377;SDS011;65200;49.500;8.654;2023-07-08T02:32:55;6.63;;;3.80;;
76377;SDS011;65200;49.500;8.654;2023-07-08T02:35:22;6.60;;;3.88;;
76377;SDS011;65200;49.500;8.654;2023-07-08T02:37:50;6.63;;;3.50;;
76377;SDS011;65200;49.500;8.654;2023-07-08T02:40:17;5.72;;;4.40;;
76377;SDS011;65200;49.500;8.654;2023-07-08T02:42:43;5.35;;;3.40;;
76377;SDS011;65200;49.500;8.654;2023-07-08T02:45:10;5.85;;;4.15;;
76377;SDS011;65200;49.500;8.654;2023-07-08T02:47:39;6.50;;;3.65;;
76377;SDS011;65200;49.500;8.654;2023-07-08T02:50:06;7.47;;;4.35;;
76377;SDS011;65200;49.500;8.654;2023-07-08T02:52:33;5.90;;;3.58;;
76377;SDS011;65200;49.500;8.654;2023-07-08T02:55:00;8.20;;;4.25;;
76377;SDS011;65200;49.500;8.654;2023-07-08T02:57:26;6.35;;;4.57;;
76377;SDS011;65200;49.500;8.654;2023-07-08T02:59:53;8.05;;;4.13;;
76377;SDS011;65200;49.500;8.654;2023-07-08T03:02:20;6.13;;;3.78;;
76377;SDS011;65200;49.500;8.654;2023-07-08T03:04:48;6.68;;;3.97;;
76377;SDS011;65200;49.500;8.654;2023-07-08T03:07:15;7.35;;;4.00;;
76377;SDS011;65200;49.500;8.654;2023-07-08T03:09:42;5.25;;;3.88;;
76377;SDS011;65200;49.500;8.654;2023-07-08T03:12:09;6.65;;;5.18;;
76377;SDS011;65200;49.500;8.654;2023-07-08T03:14:36;6.90;;;4.22;;
76377;SDS011;65200;49.500;8.654;2023-07-08T03:17:03;6.97;;;4.25;;
76377;SDS011;65200;49.500;8.654;2023-07-08T03:19:30;6.10;;;4.57;;
76377;SDS011;65200;49.500;8.654;2023-07-08T03:21:58;9.43;;;5.15;;
76377;SDS011;65200;49.500;8.654;2023-07-08T03:24:27;6.32;;;4.55;;
76377;SDS011;65200;49.500;8.654;2023-07-08T03:26:54;7.30;;;4.53;;
76377;SDS011;65200;49.500;8.654;2023-07-08T03:29:22;5.85;;;3.88;;
76377;SDS011;65200;49.500;8.654;2023-07-08T03:31:49;9.35;;;4.78;;
76377;SDS011;65200;49.500;8.654;2023-07-08T03:34:16;9.68;;;5.25;;
76377;SDS011;65200;49.500;8.654;2023-07-08T03:36:43;7.97;;;4.75;;
76377;SDS011;65200;49.500;8.654;2023-07-08T03:39:15;7.70;;;4.65;;
76377;SDS011;65200;49.500;8.654;2023-07-08T03:41:42;10.65;;;5.60;;
76377;SDS011;65200;49.500;8.654;2023-07-08T03:44:09;6.97;;;4.85;;
76377;SDS011;65200;49.500;8.654;2023-07-08T03:46:36;6.82;;;4.35;;
76377;SDS011;65200;49.500;8.654;2023-07-08T03:49:03;9.35;;;4.90;;
76377;SDS011;65200;49.500;8.654;2023-07-08T03:51:31;6.70;;;4.78;;
76377;SDS011;65200;49.500;8.654;2023-07-08T03:53:59;8.30;;;4.95;;
76377;SDS011;65200;49.500;8.654;2023-07-08T03:56:27;5.40;;;4.65;;
76377;SDS011;65200;49.500;8.654;2023-07-08T03:58:53;5.43;;;3.97;;
76377;SDS011;65200;49.500;8.654;2023-07-08T04:01:21;13.18;;;5.03;;
76377;SDS011;65200;49.500;8.654;2023-07-08T04:03:49;9.55;;;5.38;;
76377;SDS011;65200;49.500;8.654;2023-07-08T04:06:17;8.57;;;5.00;;
76377;SDS011;65200;49.500;8.654;2023-07-08T04:08:44;12.10;;;5.07;;
76377;SDS011;65200;49.500;8.654;2023-07-08T04:11:11;11.43;;;3.78;;
76377;SDS011;65200;49.500;8.654;2023-07-08T04:13:40;8.95;;;4.80;;
76377;SDS011;65200;49.500;8.654;2023-07-08T04:16:07;6.70;;;4.75;;
76377;SDS011;65200;49.500;8.654;2023-07-08T04:18:39;7.18;;;4.90;;
76377;SDS011;65200;49.500;8.654;2023-07-08T04:21:06;8.82;;;5.93;;
76377;SDS011;65200;49.500;8.654;2023-07-08T04:23:32;9.57;;;4.38;;
76377;SDS011;65200;49.500;8.654;2023-07-08T04:25:59;10.13;;;4.65;;
76377;SDS011;65200;49.500;8.654;2023-07-08T04:28:26;7.28;;;4.55;;
76377;SDS011;65200;49.500;8.654;2023-07-08T04:30:54;7.35;;;3.72;;
76377;SDS011;65200;49.500;8.654;2023-07-08T04:33:20;8.90;;;4.47;;
76377;SDS011;65200;49.500;8.654;2023-07-08T04:35:47;7.93;;;5.43;;
76377;SDS011;65200;49.500;8.654;2023-07-08T04:38:14;8.13;;;5.05;;
76377;SDS011;65200;49.500;8.654;2023-07-08T04:40:44;8.45;;;4.65;;
76377;SDS011;65200;49.500;8.654;2023-07-08T04:43:11;7.32;;;4.05;;
76377;SDS011;65200;49.500;8.654;2023-07-08T04:45:38;12.43;;;4.85;;
76377;SDS011;65200;49.500;8.654;2023-07-08T04:48:08;7.90;;;4.28;;
76377;SDS011;65200;49.500;8.654;2023-07-08T04:50:39;6.10;;;4.60;;
76377;SDS011;65200;49.500;8.654;2023-07-08T04:53:07;6.80;;;4.28;;
76377;SDS011;65200;49.500;8.654;2023-07-08T04:55:34;6.85;;;5.15;;
76377;SDS011;65200;49.500;8.654;2023-07-08T04:58:00;7.72;;;4.55;;
76377;SDS011;65200;49.500;8.654;2023-07-08T05:00:27;6.57;;;3.90;;
76377;SDS011;65200;49.500;8.654;2023-07-08T05:02:54;7.65;;;5.03;;
76377;SDS011;65200;49.500;8.654;2023-07-08T05:05:22;6.88;;;3.83;;
76377;SDS011;65200;49.500;8.654;2023-07-08T05:07:48;7.07;;;3.90;;
76377;SDS011;65200;49.500;8.654;2023-07-08T05:10:15;10.50;;;4.55;;
76377;SDS011;65200;49.500;8.654;2023-07-08T05:12:42;7.70;;;5.80;;
76377;SDS011;65200;49.500;8.654;2023-07-08T05:15:09;8.60;;;5.07;;
76377;SDS011;65200;49.500;8.654;2023-07-08T05:20:04;6.10;;;3.95;;
76377;SDS011;65200;49.500;8.654;2023-07-08T05:22:34;8.60;;;5.65;;
76377;SDS011;65200;49.500;8.654;2023-07-08T05:25:01;10.52;;;5.05;;
76377;SDS011;65200;49.500;8.654;2023-07-08T05:27:28;8.73;;;5.63;;
76377;SDS011;65200;49.500;8.654;2023-07-08T05:29:55;8.60;;;5.20;;
76377;SDS011;65200;49.500;8.654;2023-07-08T05:32:21;9.60;;;5.45;;
76377;SDS011;65200;49.500;8.654;2023-07-08T05:34:49;7.50;;;5.03;;
76377;SDS011;65200;49.500;8.654;2023-07-08T05:37:16;8.18;;;5.10;;
76377;SDS011;65200;49.500;8.654;2023-07-08T05:39:45;8.02;;;5.28;;
76377;SDS011;65200;49.500;8.654;2023-07-08T05:42:11;7.93;;;5.32;;
76377;SDS011;65200;49.500;8.654;2023-07-08T05:44:38;13.38;;;4.82;;
76377;SDS011;65200;49.500;8.654;2023-07-08T05:47:04;9.10;;;4.95;;
76377;SDS011;65200;49.500;8.654;2023-07-08T05:49:31;9.07;;;5.43;;
76377;SDS011;65200;49.500;8.654;2023-07-08T05:51:57;8.52;;;5.68;;
76377;SDS011;65200;49.500;8.654;2023-07-08T05:54:24;7.75;;;5.20;;
76377;SDS011;65200;49.500;8.654;2023-07-08T05:56:52;6.63;;;4.60;;
76377;SDS011;65200;49.500;8.654;2023-07-08T05:59:18;8.85;;;5.90;;
76377;SDS011;65200;49.500;8.654;2023-07-08T06:01:44;8.27;;;4.93;;
76377;SDS011;65200;49.500;8.654;2023-07-08T06:04:11;7.63;;;5.18;;
76377;SDS011;65200;49.500;8.654;2023-07-08T06:06:37;9.63;;;6.03;;
76377;SDS011;65200;49.500;8.654;2023-07-08T06:09:04;7.57;;;5.00;;
76377;SDS011;65200;49.500;8.654;2023-07-08T06:11:30;12.18;;;5.70;;
76377;SDS011;65200;49.500;8.654;2023-07-08T06:13:58;7.43;;;5.20;;
76377;SDS011;65200;49.500;8.654;2023-07-08T06:16:24;8.07;;;5.28;;
76377;SDS011;65200;49.500;8.654;2023-07-08T06:18:51;7.63;;;5.13;;
76377;SDS011;65200;49.500;8.654;2023-07-08T06:21:17;9.02;;;5.22;;
76377;SDS011;65200;49.500;8.654;2023-07-08T06:23:43;11.10;;;5.88;;
76377;SDS011;65200;49.500;8.654;2023-07-08T06:26:10;8.05;;;5.43;;
76377;SDS011;65200;49.500;8.654;2023-07-08T06:28:36;9.43;;;5.75;;
76377;SDS011;65200;49.500;8.654;2023-07-08T06:31:04;12.65;;;6.25;;
76377;SDS011;65200;49.500;8.654;2023-07-08T06:33:30;9.80;;;5.15;;
76377;SDS011;65200;49.500;8.654;2023-07-08T06:35:57;11.63;;;6.00;;
76377;SDS011;65200;49.500;8.654;2023-07-08T06:38:23;8.60;;;6.00;;
76377;SDS011;65200;49.500;8.654;2023-07-08T06:40:50;9.00;;;5.43;;
76377;SDS011;65200;49.500;8.654;2023-07-08T06:43:16;11.05;;;5.82;;
76377;SDS011;65200;49.500;8.654;2023-07-08T06:45:43;8.30;;;5.60;;
76377;SDS011;65200;49.500;8.654;2023-07-08T06:48:11;7.95;;;5.53;;
76377;SDS011;65200;49.500;8.654;2023-07-08T06:50:37;8.50;;;5.55;;
76377;SDS011;65200;49.500;8.654;2023-07-08T06:53:04;10.75;;;5.85;;
76377;SDS011;65200;49.500;8.654;2023-07-08T06:55:32;10.52;;;5.55;;
76377;SDS011;65200;49.500;8.654;2023-07-08T06:57:58;7.13;;;5.22;;
76377;SDS011;65200;49.500;8.654;2023-07-08T07:00:25;9.43;;;5.35;;
76377;SDS011;65200;49.500;8.654;2023-07-08T07:02:51;8.10;;;5.32;;
76377;SDS011;65200;49.500;8.654;2023-07-08T07:05:19;12.73;;;6.07;;
76377;SDS011;65200;49.500;8.654;2023-07-08T07:07:45;9.18;;;5.97;;
76377;SDS011;65200;49.500;8.654;2023-07-08T07:10:12;8.57;;;5.50;;
76377;SDS011;65200;49.500;8.654;2023-07-08T07:12:38;6.88;;;5.25;;
76377;SDS011;65200;49.500;8.654;2023-07-08T07:15:05;8.50;;;5.10;;
76377;SDS011;65200;49.500;8.654;2023-07-08T07:17:32;6.97;;;4.50;;
76377;SDS011;65200;49.500;8.654;2023-07-08T07:20:00;7.10;;;4.72;;
76377;SDS011;65200;49.500;8.654;2023-07-08T07:22:28;8.25;;;5.10;;
76377;SDS011;65200;49.500;8.654;2023-07-08T07:24:55;7.38;;;4.55;;
76377;SDS011;65200;49.500;8.654;2023-07-08T07:27:21;8.25;;;4.72;;
76377;SDS011;65200;49.500;8.654;2023-07-08T07:29:49;6.97;;;3.55;;
76377;SDS011;65200;49.500;8.654;2023-07-08T07:32:16;6.88;;;4.15;;
76377;SDS011;65200;49.500;8.654;2023-07-08T07:34:46;4.68;;;3.72;;
76377;SDS011;65200;49.500;8.654;2023-07-08T07:37:14;5.15;;;3.17;;
76377;SDS011;65200;49.500;8.654;2023-07-08T07:39:43;6.60;;;3.67;;
76377;SDS011;65200;49.500;8.654;2023-07-08T07:42:09;4.68;;;3.47;;
76377;SDS011;65200;49.500;8.654;2023-07-08T07:44:38;4.40;;;3.05;;
76377;SDS011;65200;49.500;8.654;2023-07-08T07:47:06;8.25;;;3.33;;
76377;SDS011;65200;49.500;8.654;2023-07-08T07:49:32;4.78;;;4.03;;
76377;SDS011;65200;49.500;8.654;2023-07-08T07:51:59;5.75;;;3.95;;
76377;SDS011;65200;49.500;8.654;2023-07-08T07:54:26;5.97;;;3.50;;
76377;SDS011;65200;49.500;8.654;2023-07-08T07:56:53;4.82;;;3.38;;
76377;SDS011;65200;49.500;8.654;2023-07-08T07:59:20;5.50;;;3.38;;
76377;SDS011;65200;49.500;8.654;2023-07-08T08:01:47;5.95;;;3.60;;
76377;SDS011;65200;49.500;8.654;2023-07-08T08:04:14;6.63;;;4.00;;
76377;SDS011;65200;49.500;8.654;2023-07-08T08:06:40;5.05;;;3.35;;
76377;SDS011;65200;49.500;8.654;2023-07-08T08:09:07;8.20;;;3.80;;
76377;SDS011;65200;49.500;8.654;2023-07-08T08:11:33;6.93;;;3.88;;
76377;SDS011;65200;49.500;8.654;2023-07-08T08:14:01;4.93;;;2.95;;
76377;SDS011;65200;49.500;8.654;2023-07-08T08:16:29;5.63;;;3.45;;
76377;SDS011;65200;49.500;8.654;2023-07-08T08:18:56;6.47;;;3.63;;
76377;SDS011;65200;49.500;8.654;2023-07-08T08:21:23;6.35;;;4.00;;
76377;SDS011;65200;49.500;8.654;2023-07-08T08:23:49;5.47;;;3.67;;
76377;SDS011;65200;49.500;8.654;2023-07-08T08:26:16;5.25;;;3.60;;
76377;SDS011;65200;49.500;8.654;2023-07-08T08:28:42;6.07;;;3.42;;
76377;SDS011;65200;49.500;8.654;2023-07-08T08:31:10;4.53;;;3.13;;
76377;SDS011;65200;49.500;8.654;2023-07-08T08:33:36;4.38;;;3.42;;
76377;SDS011;65200;49.500;8.654;2023-07-08T08:36:03;4.75;;;3.30;;
76377;SDS011;65200;49.500;8.654;2023-07-08T08:38:30;4.72;;;2.95;;
76377;SDS011;65200;49.500;8.654;2023-07-08T08:40:56;4.43;;;2.78;;
76377;SDS011;65200;49.500;8.654;2023-07-08T08:43:23;3.63;;;2.25;;
76377;SDS011;65200;49.500;8.654;2023-07-08T08:46:00;5.47;;;3.80;;
76377;SDS011;65200;49.500;8.654;2023-07-08T08:48:35;5.95;;;3.35;;
76377;SDS011;65200;49.500;8.654;2023-07-08T08:51:07;6.63;;;3.70;;
76377;SDS011;65200;49.500;8.654;2023-07-08T08:53:38;6.90;;;3.58;;
76377;SDS011;65200;49.500;8.654;2023-07-08T08:56:09;7.20;;;2.80;;
76377;SDS011;65200;49.500;8.654;2023-07-08T08:58:41;5.07;;;3.17;;
76377;SDS011;65200;49.500;8.654;2023-07-08T09:01:11;4.60;;;2.70;;
76377;SDS011;65200;49.500;8.654;2023-07-08T09:03:43;4.78;;;3.42;;
76377;SDS011;65200;49.500;8.654;2023-07-08T09:06:16;4.18;;;2.50;;
76377;SDS011;65200;49.500;8.654;2023-07-08T09:08:45;4.18;;;2.78;;
76377;SDS011;65200;49.500;8.654;2023-07-08T09:11:22;4.95;;;2.95;;
76377;SDS011;65200;49.500;8.654;2023-07-08T09:13:54;6.15;;;3.05;;
76377;SDS011;65200;49.500;8.654;2023-07-08T09:16:25;5.45;;;2.80;;
76377;SDS011;65200;49.500;8.654;2023-07-08T09:19:07;3.88;;;2.85;;
76377;SDS011;65200;49.500;8.654;2023-07-08T09:21:40;4.72;;;2.63;;
76377;SDS011;65200;49.500;8.654;2023-07-08T09:24:13;6.10;;;3.00;;
76377;SDS011;65200;49.500;8.654;2023-07-08T09:26:44;4.55;;;2.80;;
76377;SDS011;65200;49.500;8.654;2023-07-08T09:29:12;3.72;;;2.53;;
76377;SDS011;65200;49.500;8.654;2023-07-08T09:31:39;4.65;;;2.85;;
76377;SDS011;65200;49.500;8.654;2023-07-08T09:34:10;3.53;;;3.15;;
76377;SDS011;65200;49.500;8.654;2023-07-08T09:36:40;4.25;;;3.00;;
76377;SDS011;65200;49.500;8.654;2023-07-08T09:39:11;3.45;;;2.28;;
76377;SDS011;65200;49.500;8.654;2023-07-08T09:41:39;5.18;;;2.53;;
76377;SDS011;65200;49.500;8.654;2023-07-08T09:44:13;5.95;;;3.00;;
76377;SDS011;65200;49.500;8.654;2023-07-08T09:46:42;3.78;;;2.85;;
76377;SDS011;65200;49.500;8.654;2023-07-08T09:49:16;4.40;;;2.70;;
76377;SDS011;65200;49.500;8.654;2023-07-08T09:51:45;4.82;;;2.80;;
76377;SDS011;65200;49.500;8.654;2023-07-08T09:54:15;3.47;;;2.17;;
76377;SDS011;65200;49.500;8.654;2023-07-08T09:56:43;3.65;;;2.25;;
76377;SDS011;65200;49.500;8.654;2023-07-08T09:59:12;5.10;;;2.55;;
76377;SDS011;65200;49.500;8.654;2023-07-08T10:01:40;4.38;;;2.67;;
76377;SDS011;65200;49.500;8.654;2023-07-08T10:04:08;4.40;;;2.63;;
76377;SDS011;65200;49.500;8.654;2023-07-08T10:06:36;6.25;;;3.10;;
76377;SDS011;65200;49.500;8.654;2023-07-08T10:09:03;6.20;;;3.33;;
76377;SDS011;65200;49.500;8.654;2023-07-08T10:11:32;5.32;;;2.80;;
76377;SDS011;65200;49.500;8.654;2023-07-08T10:14:03;4.88;;;3.17;;
76377;SDS011;65200;49.500;8.654;2023-07-08T10:16:33;3.88;;;2.63;;
76377;SDS011;65200;49.500;8.654;2023-07-08T10:19:00;5.82;;;2.72;;
76377;SDS011;65200;49.500;8.654;2023-07-08T10:21:31;6.70;;;3.00;;
76377;SDS011;65200;49.500;8.654;2023-07-08T10:24:10;5.68;;;2.35;;
76377;SDS011;65200;49.500;8.654;2023-07-08T10:26:49;3.78;;;3.10;;
76377;SDS011;65200;49.500;8.654;2023-07-08T10:29:24;5.53;;;2.90;;
76377;SDS011;65200;49.500;8.654;2023-07-08T10:32:01;3.75;;;2.42;;
76377;SDS011;65200;49.500;8.654;2023-07-08T10:34:36;4.25;;;2.80;;
76377;SDS011;65200;49.500;8.654;2023-07-08T10:37:17;4.03;;;2.33;;
76377;SDS011;65200;49.500;8.654;2023-07-08T10:39:55;5.18;;;3.05;;
76377;SDS011;65200;49.500;8.654;2023-07-08T10:42:32;5.25;;;3.35;;
76377;SDS011;65200;49.500;8.654;2023-07-08T10:45:08;5.72;;;3.17;;
76377;SDS011;65200;49.500;8.654;2023-07-08T10:47:42;3.92;;;2.88;;
76377;SDS011;65200;49.500;8.654;2023-07-08T10:50:28;6.35;;;3.17;;
76377;SDS011;65200;49.500;8.654;2023-07-08T10:55:45;4.15;;;3.13;;
76377;SDS011;65200;49.500;8.654;2023-07-08T10:58:20;3.78;;;2.50;;
76377;SDS011;65200;49.500;8.654;2023-07-08T11:01:03;5.80;;;3.28;;
76377;SDS011;65200;49.500;8.654;2023-07-08T11:06:47;5.90;;;3.75;;
76377;SDS011;65200;49.500;8.654;2023-07-08T11:09:20;3.90;;;3.08;;
76377;SDS011;65200;49.500;8.654;2023-07-08T11:11:53;3.95;;;2.83;;
76377;SDS011;65200;49.500;8.654;2023-07-08T11:14:22;5.60;;;3.20;;
76377;SDS011;65200;49.500;8.654;2023-07-08T11:16:53;5.18;;;3.45;;
76377;SDS011;65200;49.500;8.654;2023-07-08T11:19:26;4.78;;;3.50;;
76377;SDS011;65200;49.500;8.654;2023-07-08T11:21:59;6.38;;;4.13;;
76377;SDS011;65200;49.500;8.654;2023-07-08T11:24:31;4.63;;;3.28;;
76377;SDS011;65200;49.500;8.654;2023-07-08T11:27:06;5.03;;;3.20;;
76377;SDS011;65200;49.500;8.654;2023-07-08T11:29:39;5.82;;;3.80;;
76377;SDS011;65200;49.500;8.654;2023-07-08T11:32:11;5.25;;;3.00;;
76377;SDS011;65200;49.500;8.654;2023-07-08T11:34:42;4.38;;;3.20;;
76377;SDS011;65200;49.500;8.654;2023-07-08T11:37:10;4.55;;;3.20;;
76377;SDS011;65200;49.500;8.654;2023-07-08T11:39:41;5.28;;;3.28;;
76377;SDS011;65200;49.500;8.654;2023-07-08T11:42:19;5.82;;;3.30;;
76377;SDS011;65200;49.500;8.654;2023-07-08T11:44:51;5.53;;;3.10;;
76377;SDS011;65200;49.500;8.654;2023-07-08T11:47:19;5.32;;;3.10;;
76377;SDS011;65200;49.500;8.654;2023-07-08T11:49:50;4.13;;;2.80;;
76377;SDS011;65200;49.500;8.654;2023-07-08T11:52:19;4.55;;;3.55;;
76377;SDS011;65200;49.500;8.654;2023-07-08T11:54:48;4.13;;;3.17;;
76377;SDS011;65200;49.500;8.654;2023-07-08T11:57:25;4.43;;;3.00;;
76377;SDS011;65200;49.500;8.654;2023-07-08T12:00:06;5.20;;;2.83;;
76377;SDS011;65200;49.500;8.654;2023-07-08T12:02:50;4.63;;;2.60;;
76377;SDS011;65200;49.500;8.654;2023-07-08T12:05:28;5.60;;;3.05;;
76377;SDS011;65200;49.500;8.654;2023-07-08T12:07:57;4.82;;;3.28;;
76377;SDS011;65200;49.500;8.654;2023-07-08T12:10:27;4.68;;;3.53;;
76377;SDS011;65200;49.500;8.654;2023-07-08T12:12:58;4.15;;;2.90;;
76377;SDS011;65200;49.500;8.654;2023-07-08T12:15:24;3.85;;;2.85;;
76377;SDS011;65200;49.500;8.654;2023-07-08T12:17:53;4.80;;;3.10;;
76377;SDS011;65200;49.500;8.654;2023-07-08T12:20:22;4.18;;;3.30;;
76377;SDS011;65200;49.500;8.654;2023-07-08T12:22:52;4.22;;;3.08;;
76377;SDS011;65200;49.500;8.654;2023-07-08T12:27:49;6.95;;;3.05;;
76377;SDS011;65200;49.500;8.654;2023-07-08T12:30:15;6.63;;;3.22;;
76377;SDS011;65200;49.500;8.654;2023-07-08T12:32:42;4.63;;;3.00;;
76377;SDS011;65200;49.500;8.654;2023-07-08T12:35:14;5.20;;;2.72;;
76377;SDS011;65200;49.500;8.654;2023-07-08T12:37:47;4.90;;;3.53;;
76377;SDS011;65200;49.500;8.654;2023-07-08T12:40:13;4.43;;;2.97;;
76377;SDS011;65200;49.500;8.654;2023-07-08T12:42:40;4.35;;;2.90;;
76377;SDS011;65200;49.500;8.654;2023-07-08T12:45:13;4.47;;;3.35;;
76377;SDS011;65200;49.500;8.654;2023-07-08T12:47:40;6.55;;;3.55;;
76377;SDS011;65200;49.500;8.654;2023-07-08T12:50:07;5.45;;;3.47;;
76377;SDS011;65200;49.500;8.654;2023-07-08T12:52:35;6.13;;;3.28;;
76377;SDS011;65200;49.500;8.654;2023-07-08T12:55:01;5.78;;;2.85;;
76377;SDS011;65200;49.500;8.654;2023-07-08T12:57:28;5.53;;;3.60;;
76377;SDS011;65200;49.500;8.654;2023-07-08T12:59:54;5.25;;;3.33;;
76377;SDS011;65200;49.500;8.654;2023-07-08T13:02:22;4.50;;;3.10;;
76377;SDS011;65200;49.500;8.654;2023-07-08T13:04:53;3.55;;;2.60;;
76377;SDS011;65200;49.500;8.654;2023-07-08T13:07:33;4.57;;;3.08;;
76377;SDS011;65200;49.500;8.654;2023-07-08T13:10:02;4.60;;;3.17;;
76377;SDS011;65200;49.500;8.654;2023-07-08T13:12:30;4.38;;;3.05;;
76377;SDS011;65200;49.500;8.654;2023-07-08T13:14:59;4.18;;;3.30;;
76377;SDS011;65200;49.500;8.654;2023-07-08T13:17:28;5.43;;;2.60;;
76377;SDS011;65200;49.500;8.654;2023-07-08T13:19:55;4.07;;;3.00;;
76377;SDS011;65200;49.500;8.654;2023-07-08T13:22:22;5.13;;;2.97;;
76377;SDS011;65200;49.500;8.654;2023-07-08T13:24:58;4.38;;;3.17;;
76377;SDS011;65200;49.500;8.654;2023-07-08T13:27:26;5.30;;;3.28;;
76377;SDS011;65200;49.500;8.654;2023-07-08T13:29:53;4.57;;;3.35;;
76377;SDS011;65200;49.500;8.654;2023-07-08T13:32:20;4.80;;;3.08;;
76377;SDS011;65200;49.500;8.654;2023-07-08T13:34:57;3.90;;;2.80;;
76377;SDS011;65200;49.500;8.654;2023-07-08T13:37:23;5.13;;;2.88;;
76377;SDS011;65200;49.500;8.654;2023-07-08T13:39:51;5.03;;;3.17;;
76377;SDS011;65200;49.500;8.654;2023-07-08T13:42:19;4.40;;;3.10;;
76377;SDS011;65200;49.500;8.654;2023-07-08T13:44:46;5.68;;;3.88;;
76377;SDS011;65200;49.500;8.654;2023-07-08T13:47:21;6.50;;;3.25;;
76377;SDS011;65200;49.500;8.654;2023-07-08T13:49:54;5.22;;;3.38;;
76377;SDS011;65200;49.500;8.654;2023-07-08T13:52:25;4.35;;;3.17;;
76377;SDS011;65200;49.500;8.654;2023-07-08T13:54:52;5.03;;;3.53;;
76377;SDS011;65200;49.500;8.654;2023-07-08T13:57:27;5.90;;;3.28;;
76377;SDS011;65200;49.500;8.654;2023-07-08T13:59:57;5.93;;;2.60;;
76377;SDS011;65200;49.500;8.654;2023-07-08T14:02:25;3.85;;;2.78;;
76377;SDS011;65200;49.500;8.654;2023-07-08T14:04:54;5.65;;;3.85;;
76377;SDS011;65200;49.500;8.654;2023-07-08T14:07:23;4.80;;;2.90;;
76377;SDS011;65200;49.500;8.654;2023-07-08T14:09:50;6.13;;;3.45;;
76377;SDS011;65200;49.500;8.654;2023-07-08T14:12:17;3.83;;;2.97;;
76377;SDS011;65200;49.500;8.654;2023-07-08T14:14:44;4.32;;;2.60;;
76377;SDS011;65200;49.500;8.654;2023-07-08T14:17:11;5.30;;;2.67;;
76377;SDS011;65200;49.500;8.654;2023-07-08T14:19:39;3.75;;;3.08;;
76377;SDS011;65200;49.500;8.654;2023-07-08T14:22:21;3.72;;;2.83;;
76377;SDS011;65200;49.500;8.654;2023-07-08T14:24:49;4.18;;;2.97;;
76377;SDS011;65200;49.500;8.654;2023-07-08T14:27:16;3.75;;;2.42;;
76377;SDS011;65200;49.500;8.654;2023-07-08T14:32:10;5.57;;;2.50;;
76377;SDS011;65200;49.500;8.654;2023-07-08T14:34:39;4.13;;;2.85;;
76377;SDS011;65200;49.500;8.654;2023-07-08T14:37:10;5.20;;;2.50;;
76377;SDS011;65200;49.500;8.654;2023-07-08T14:39:39;3.28;;;2.40;;
76377;SDS011;65200;49.500;8.654;2023-07-08T14:42:07;4.25;;;3.25;;
76377;SDS011;65200;49.500;8.654;2023-07-08T14:44:36;3.95;;;2.55;;
76377;SDS011;65200;49.500;8.654;2023-07-08T14:47:04;4.82;;;2.45;;
76377;SDS011;65200;49.500;8.654;2023-07-08T14:49:34;5.18;;;2.40;;
76377;SDS011;65200;49.500;8.654;2023-07-08T14:52:01;5.05;;;2.88;;
76377;SDS011;65200;49.500;8.654;2023-07-08T14:54:29;4.63;;;2.60;;
76377;SDS011;65200;49.500;8.654;2023-07-08T14:56:55;4.40;;;2.30;;
76377;SDS011;65200;49.500;8.654;2023-07-08T14:59:23;6.20;;;2.55;;
76377;SDS011;65200;49.500;8.654;2023-07-08T15:01:51;3.67;;;2.70;;
76377;SDS011;65200;49.500;8.654;2023-07-08T15:04:20;3.00;;;2.38;;
76377;SDS011;65200;49.500;8.654;2023-07-08T15:06:46;4.30;;;2.58;;
76377;SDS011;65200;49.500;8.654;2023-07-08T15:09:12;3.55;;;2.40;;
76377;SDS011;65200;49.500;8.654;2023-07-08T15:14:09;3.30;;;2.28;;